Time;durP1;ratioP1;P1;durP2;ratioP2;P2;SDS_P1;SDS_P2;PMS_P1;PMS_P2;Temp;Humidity;BMP_temperature;BMP_pressure;BME280_temperature;BME280_humidity;BME280_pressure;Samples;Min_cycle;Max_cycle;Signal;HPM_P1;HPM_P2
2022/03/07 00:02:27;;;;;;;12.80;4.90;;;;;2.10;97430.40;;;;110576;1250;41133;-62
2022/03/07 00:04:59;;;;;;;11.00;4.30;;;;;2.10;97428.20;;;;110804;1250;41263;-63
2022/03/07 00:07:29;;;;;;;14.90;5.00;;;;;2.10;97434.60;;;;110792;1251;41250;-63
2022/03/07 00:10:00;;;;;;;12.00;4.60;;;;;2.10;97435.80;;;;110897;1250;42510;-63
2022/03/07 00:12:29;;;;;;;11.10;5.10;;;;;2.10;97434.00;;;;110717;1250;41261;-63
2022/03/07 00:15:02;;;;;;;10.50;4.40;;;;;2.08;97427.40;;;;110851;1249;41147;-62
2022/03/07 00:17:31;;;;;;;10.30;4.60;;;;;2.02;97426.80;;;;110886;1250;42544;-62
2022/03/07 00:20:04;;;;;;;11.30;4.50;;;;;2.00;97426.60;;;;110773;1250;41188;-63
2022/03/07 00:22:34;;;;;;;11.10;4.30;;;;;2.00;97423.20;;;;110756;1250;42305;-62
2022/03/07 00:25:07;;;;;;;11.40;4.30;;;;;2.00;97426.40;;;;110608;1250;41267;-62
2022/03/07 00:27:37;;;;;;;10.90;4.20;;;;;2.00;97422.80;;;;110687;1251;42157;-63
2022/03/07 00:30:08;;;;;;;11.00;4.30;;;;;2.00;97416.80;;;;110840;1250;41296;-61
2022/03/07 00:32:38;;;;;;;12.00;4.80;;;;;2.00;97417.80;;;;110872;1250;41901;-63
2022/03/07 00:35:09;;;;;;;10.80;4.50;;;;;2.00;97414.60;;;;110725;1251;41145;-63
2022/03/07 00:37:39;;;;;;;10.00;4.30;;;;;2.00;97412.40;;;;110804;1251;42041;-61
2022/03/07 00:40:10;;;;;;;9.80;4.30;;;;;1.98;97414.40;;;;110658;1252;41145;-63
2022/03/07 00:42:40;;;;;;;12.30;4.70;;;;;1.94;97413.20;;;;110681;1250;41137;-63
2022/03/07 00:45:10;;;;;;;12.80;5.00;;;;;1.90;97414.00;;;;110616;1251;41147;-62
2022/03/07 00:47:40;;;;;;;12.20;4.90;;;;;1.90;97405.20;;;;110724;1250;41377;-61
2022/03/07 00:50:11;;;;;;;11.10;5.00;;;;;1.90;97409.80;;;;110787;1251;41298;-63
2022/03/07 00:52:42;;;;;;;11.60;5.00;;;;;1.90;97403.00;;;;110757;1250;41907;-63
2022/03/07 00:55:13;;;;;;;10.50;4.60;;;;;1.90;97402.60;;;;110869;1250;41140;-62
2022/03/07 00:57:44;;;;;;;13.10;5.10;;;;;1.90;97394.80;;;;110514;1251;41142;-62
2022/03/07 01:00:15;;;;;;;11.40;4.30;;;;;1.90;97393.00;;;;110704;1250;41340;-62
2022/03/07 01:02:45;;;;;;;11.30;4.90;;;;;1.90;97394.80;;;;110703;1250;41155;-63
2022/03/07 01:05:16;;;;;;;9.60;4.60;;;;;1.90;97392.60;;;;110930;1250;41591;-63
2022/03/07 01:07:47;;;;;;;11.80;4.90;;;;;1.90;97390.80;;;;110713;1250;41149;-64
2022/03/07 01:10:17;;;;;;;;;;;;;1.90;97390.40;;;;110675;1251;41146;-65
2022/03/07 01:12:47;;;;;;;11.40;4.60;;;;;1.90;97393.00;;;;110956;1250;41129;-64
2022/03/07 01:15:18;;;;;;;12.60;5.30;;;;;1.90;97388.80;;;;110591;1251;41135;-63
2022/03/07 01:17:48;;;;;;;10.80;4.80;;;;;1.90;97392.20;;;;110577;1250;41395;-62
2022/03/07 01:20:20;;;;;;;11.30;4.50;;;;;1.90;97386.20;;;;110757;1250;41148;-62
2022/03/07 01:22:51;;;;;;;14.40;5.60;;;;;1.90;97385.60;;;;111019;1250;41087;-63
2022/03/07 01:25:21;;;;;;;13.40;5.40;;;;;1.90;97388.00;;;;110768;1252;41410;-62
2022/03/07 01:27:52;;;;;;;11.70;4.90;;;;;1.90;97381.40;;;;110771;1250;42374;-63
2022/03/07 01:30:23;;;;;;;10.40;4.40;;;;;1.90;97388.00;;;;110487;1252;41150;-63
2022/03/07 01:32:52;;;;;;;12.70;5.30;;;;;1.90;97382.20;;;;110682;1250;41563;-65
2022/03/07 01:35:26;;;;;;;14.70;5.20;;;;;1.92;97379.40;;;;110880;1250;41195;-63
2022/03/07 01:37:56;;;;;;;10.90;4.90;;;;;2.00;97374.00;;;;110731;1251;42432;-64
2022/03/07 01:40:27;;;;;;;12.20;5.00;;;;;2.00;97374.20;;;;110656;1249;42384;-63
2022/03/07 01:42:57;;;;;;;11.10;5.10;;;;;2.00;97369.60;;;;110698;1250;41138;-60
2022/03/07 01:45:28;;;;;;;10.90;4.40;;;;;2.00;97370.40;;;;110859;1250;41210;-63
2022/03/07 01:47:58;;;;;;;12.50;4.70;;;;;2.00;97374.80;;;;110680;1251;41143;-63
2022/03/07 01:50:29;;;;;;;11.80;4.50;;;;;2.00;97367.20;;;;110947;1250;41156;-64
2022/03/07 01:52:59;;;;;;;9.90;4.20;;;;;2.00;97363.40;;;;110663;1252;41143;-62
2022/03/07 01:55:30;;;;;;;11.70;4.50;;;;;2.04;97360.60;;;;110651;1250;41257;-62
2022/03/07 01:58:05;;;;;;;10.40;4.70;;;;;2.08;97363.60;;;;110630;1252;41371;-62
2022/03/07 02:00:36;;;;;;;11.60;4.70;;;;;2.08;97365.60;;;;110806;1250;41571;-62
2022/03/07 02:03:08;;;;;;;11.30;4.10;;;;;2.10;97363.80;;;;110659;1252;41272;-63
2022/03/07 02:05:41;;;;;;;10.60;4.30;;;;;2.02;97365.40;;;;110828;1252;41154;-62
2022/03/07 02:08:24;;;;;;;9.90;3.90;;;;;2.00;97364.80;;;;110840;1251;41263;-62
2022/03/07 02:11:04;;;;;;;11.80;4.90;;;;;2.00;97365.20;;;;110704;1250;41822;-63
2022/03/07 02:13:35;;;;;;;11.20;4.70;;;;;2.00;97365.00;;;;110790;1250;41161;-63
2022/03/07 02:16:09;;;;;;;13.70;5.00;;;;;2.00;97365.00;;;;110656;1250;42093;-63
2022/03/07 02:18:39;;;;;;;12.60;5.50;;;;;2.00;97361.00;;;;110721;1250;42157;-64
2022/03/07 02:21:23;;;;;;;13.90;5.10;;;;;2.00;97361.20;;;;110766;1251;41647;-63
2022/03/07 02:24:19;;;;;;;13.80;4.80;;;;;2.00;97362.60;;;;110595;1250;41255;-65
2022/03/07 02:26:59;;;;;;;11.40;4.50;;;;;2.00;97360.80;;;;110632;1250;41261;-63
2022/03/07 02:29:31;;;;;;;11.60;5.00;;;;;2.00;97360.60;;;;110826;1251;41130;-63
2022/03/07 02:32:07;;;;;;;9.70;4.50;;;;;1.98;97362.60;;;;110853;1250;41257;-63
2022/03/07 02:34:42;;;;;;;10.60;4.60;;;;;1.90;97370.00;;;;110623;1252;42057;-66
2022/03/07 02:37:15;;;;;;;11.40;4.70;;;;;1.90;97367.80;;;;110726;1250;41616;-63
2022/03/07 02:39:55;;;;;;;14.00;4.80;;;;;1.90;97361.20;;;;110641;1250;41268;-63
2022/03/07 02:42:40;;;;;;;12.40;5.40;;;;;1.90;97359.00;;;;110704;1250;41462;-63
2022/03/07 02:45:11;;;;;;;11.60;4.70;;;;;1.80;97357.40;;;;110240;1252;428617;-63
2022/03/07 02:47:42;;;;;;;13.40;5.20;;;;;1.80;97359.80;;;;110584;1250;41158;-62
2022/03/07 02:50:12;;;;;;;9.70;4.50;;;;;1.80;97362.80;;;;110594;1252;41277;-64
2022/03/07 02:52:44;;;;;;;11.30;5.00;;;;;1.80;97360.20;;;;110601;1250;41133;-62
2022/03/07 02:55:15;;;;;;;12.70;4.60;;;;;1.82;97361.80;;;;110835;1250;41589;-63
2022/03/07 02:57:48;;;;;;;11.60;5.00;;;;;1.84;97355.00;;;;110772;1250;42363;-63
2022/03/07 03:00:19;;;;;;;10.90;4.60;;;;;1.90;97356.20;;;;110581;1250;41391;-62
2022/03/07 03:02:51;;;;;;;10.60;4.70;;;;;1.90;97357.60;;;;110939;1250;41258;-62
2022/03/07 03:05:24;;;;;;;12.30;4.60;;;;;1.90;97354.80;;;;110781;1252;41611;-63
2022/03/07 03:07:54;;;;;;;9.90;4.40;;;;;1.90;97348.60;;;;110770;1250;42571;-63
2022/03/07 03:10:25;;;;;;;8.90;3.60;;;;;1.90;97356.00;;;;110663;1250;42393;-63
2022/03/07 03:12:57;;;;;;;8.70;3.70;;;;;1.90;97350.00;;;;110736;1250;41266;-64
2022/03/07 03:15:28;;;;;;;10.60;4.40;;;;;1.90;97347.00;;;;110746;1250;42176;-62
2022/03/07 03:17:58;;;;;;;10.50;4.00;;;;;1.90;97352.20;;;;110632;1251;42364;-63
2022/03/07 03:20:29;;;;;;;9.60;4.10;;;;;1.90;97347.20;;;;110612;1250;42538;-63
2022/03/07 03:22:59;;;;;;;10.50;4.30;;;;;1.90;97353.40;;;;110827;1250;41256;-64
2022/03/07 03:25:29;;;;;;;10.50;4.70;;;;;1.90;97350.00;;;;110648;1250;41263;-64
2022/03/07 03:28:00;;;;;;;16.50;6.30;;;;;1.86;97349.40;;;;110634;1251;41413;-64
2022/03/07 03:30:30;;;;;;;16.50;7.10;;;;;1.72;97354.20;;;;110956;1250;41152;-62
2022/03/07 03:33:02;;;;;;;13.20;6.10;;;;;1.60;97353.20;;;;110656;1253;41289;-62
2022/03/07 03:35:36;;;;;;;11.70;5.40;;;;;1.50;97352.40;;;;110791;1250;41160;-62
2022/03/07 03:38:10;;;;;;;12.60;5.50;;;;;1.40;97353.20;;;;110791;1250;41244;-63
2022/03/07 03:40:40;;;;;;;11.10;5.00;;;;;1.40;97346.40;;;;110746;1251;41257;-62
2022/03/07 03:43:10;;;;;;;13.00;5.70;;;;;1.34;97348.00;;;;110604;1253;41264;-63
2022/03/07 03:45:41;;;;;;;12.50;5.30;;;;;1.20;97351.60;;;;110669;1250;41646;-63
2022/03/07 03:48:11;;;;;;;11.10;4.40;;;;;1.30;97349.80;;;;110555;1252;41153;-63
2022/03/07 03:50:41;;;;;;;10.40;4.30;;;;;1.22;97352.60;;;;110862;1251;41194;-63
2022/03/07 03:53:12;;;;;;;9.90;4.70;;;;;1.24;97351.20;;;;110891;1251;41619;-62
2022/03/07 03:55:43;;;;;;;10.70;4.60;;;;;1.30;97348.80;;;;110765;1250;41603;-60
2022/03/07 03:58:12;;;;;;;9.40;4.30;;;;;1.20;97355.40;;;;111065;1249;41916;-62
2022/03/07 04:00:42;;;;;;;8.90;3.90;;;;;1.20;97352.40;;;;110997;1247;41252;-62
2022/03/07 04:03:12;;;;;;;9.80;4.70;;;;;1.20;97354.20;;;;110632;1251;42184;-62
2022/03/07 04:05:42;;;;;;;12.00;5.20;;;;;1.10;97351.40;;;;110623;1250;42388;-61
2022/03/07 04:08:12;;;;;;;9.30;4.40;;;;;1.00;97348.00;;;;110764;1250;41252;-62
2022/03/07 04:10:42;;;;;;;11.30;4.50;;;;;0.98;97346.40;;;;110823;1250;41140;-61
2022/03/07 04:13:13;;;;;;;9.30;4.40;;;;;1.00;97345.60;;;;110930;1250;42037;-63
2022/03/07 04:15:42;;;;;;;10.60;4.40;;;;;0.98;97344.80;;;;110821;1251;41154;-63
2022/03/07 04:18:12;;;;;;;9.10;4.00;;;;;1.00;97346.20;;;;110726;1251;41157;-64
2022/03/07 04:20:44;;;;;;;8.90;3.90;;;;;1.00;97341.80;;;;110688;1252;41160;-62
2022/03/07 04:23:15;;;;;;;;;;;;;1.00;97346.80;;;;110810;1251;41388;-63
2022/03/07 04:25:44;;;;;;;;;;;;;1.00;97348.00;;;;110727;1250;41154;-63
2022/03/07 04:28:15;;;;;;;9.20;4.00;;;;;1.00;97345.80;;;;110889;1250;41130;-63
2022/03/07 04:30:45;;;;;;;9.70;4.20;;;;;1.10;97351.40;;;;110862;1250;41153;-61
2022/03/07 04:33:15;;;;;;;11.80;4.10;;;;;1.10;97350.00;;;;110827;1250;41332;-62
2022/03/07 04:35:44;;;;;;;9.10;4.20;;;;;1.10;97348.00;;;;110751;1250;41261;-64
2022/03/07 04:38:14;;;;;;;11.40;4.60;;;;;1.10;97341.20;;;;110884;1250;41606;-63
2022/03/07 04:40:44;;;;;;;11.20;4.50;;;;;1.10;97351.20;;;;110795;1252;41376;-64
2022/03/07 04:43:14;;;;;;;10.40;4.60;;;;;1.14;97353.60;;;;110804;1249;41263;-62
2022/03/07 04:45:44;;;;;;;11.10;4.40;;;;;1.20;97355.20;;;;110853;1251;41287;-63
2022/03/07 04:48:14;;;;;;;11.10;4.60;;;;;1.20;97352.20;;;;110729;1250;41157;-63
2022/03/07 04:50:43;;;;;;;9.80;4.30;;;;;1.20;97350.40;;;;110602;1250;41130;-63
2022/03/07 04:53:13;;;;;;;10.30;4.50;;;;;1.20;97353.00;;;;110846;1250;42397;-61
2022/03/07 04:55:44;;;;;;;10.50;4.60;;;;;1.22;97350.20;;;;110701;1250;41189;-62
2022/03/07 04:58:13;;;;;;;11.80;4.10;;;;;1.26;97351.40;;;;110745;1250;41267;-63
2022/03/07 05:00:43;;;;;;;11.00;4.20;;;;;1.30;97346.20;;;;110674;1251;41142;-62
2022/03/07 05:03:13;;;;;;;8.50;3.80;;;;;1.30;97347.80;;;;110647;1251;41162;-60
2022/03/07 05:05:42;;;;;;;12.00;5.00;;;;;1.30;97348.20;;;;110758;1250;41985;-62
2022/03/07 05:08:12;;;;;;;11.00;4.30;;;;;1.30;97347.40;;;;110933;1250;41172;-62
2022/03/07 05:10:42;;;;;;;11.30;4.70;;;;;1.30;97346.60;;;;110830;1250;41160;-63
2022/03/07 05:13:12;;;;;;;12.40;4.50;;;;;1.30;97349.60;;;;110670;1250;41945;-63
2022/03/07 05:15:42;;;;;;;13.90;5.00;;;;;1.30;97346.40;;;;110670;1252;41651;-62
2022/03/07 05:18:11;;;;;;;15.10;6.50;;;;;1.30;97344.40;;;;110711;1251;41132;-62
2022/03/07 05:20:41;;;;;;;14.10;6.10;;;;;1.30;97347.40;;;;110740;1250;41271;-62
2022/03/07 05:23:24;;;;;;;13.40;6.30;;;;;1.36;97348.40;;;;110977;1250;42086;-63
2022/03/07 05:25:54;;;;;;;14.00;6.40;;;;;1.40;97342.60;;;;110699;1250;41536;-63
2022/03/07 05:28:24;;;;;;;11.00;5.10;;;;;1.40;97348.00;;;;110772;1250;41693;-62
2022/03/07 05:30:54;;;;;;;11.00;4.90;;;;;1.40;97346.20;;;;110557;1250;41674;-62
2022/03/07 05:33:24;;;;;;;11.30;5.00;;;;;1.40;97345.40;;;;110976;1250;41419;-63
2022/03/07 05:35:54;;;;;;;12.70;5.20;;;;;1.40;97342.00;;;;110783;1250;41481;-62
2022/03/07 05:38:23;;;;;;;11.00;5.50;;;;;1.40;97336.40;;;;110909;1250;41269;-62
2022/03/07 05:40:53;;;;;;;11.90;5.40;;;;;1.40;97342.80;;;;110920;1250;41152;-63
2022/03/07 05:43:22;;;;;;;12.80;5.70;;;;;1.40;97338.20;;;;110914;1251;41151;-63
2022/03/07 05:45:52;;;;;;;12.60;5.40;;;;;1.42;97339.80;;;;110688;1251;41427;-63
2022/03/07 05:48:23;;;;;;;14.50;5.10;;;;;1.50;97342.20;;;;110957;1250;41175;-62
2022/03/07 05:50:52;;;;;;;11.90;5.20;;;;;1.50;97341.60;;;;110814;1250;41613;-64
2022/03/07 05:53:23;;;;;;;15.10;5.20;;;;;1.50;97340.80;;;;110845;1248;41270;-62
2022/03/07 05:55:52;;;;;;;13.20;5.80;;;;;1.50;97335.00;;;;110833;1250;42387;-63
2022/03/07 05:58:22;;;;;;;10.90;4.90;;;;;1.50;97338.00;;;;110594;1252;41366;-62
2022/03/07 06:00:51;;;;;;;12.90;5.20;;;;;1.50;97340.20;;;;110733;1250;41172;-62
2022/03/07 06:03:20;;;;;;;10.60;4.70;;;;;1.50;97340.20;;;;110847;1250;41153;-63
2022/03/07 06:05:49;;;;;;;10.90;4.30;;;;;1.56;97338.40;;;;110522;1250;41310;-62
2022/03/07 06:08:19;;;;;;;12.70;5.60;;;;;1.60;97340.00;;;;110699;1250;41587;-59
2022/03/07 06:10:49;;;;;;;13.60;6.00;;;;;1.60;97337.80;;;;110680;1251;41522;-61
2022/03/07 06:13:19;;;;;;;13.70;5.90;;;;;1.68;97339.60;;;;110929;1250;42407;-62
2022/03/07 06:15:48;;;;;;;12.80;6.00;;;;;1.68;97336.60;;;;110936;1250;41327;-63
2022/03/07 06:18:19;;;;;;;13.80;5.90;;;;;1.70;97339.40;;;;110949;1250;42487;-63
2022/03/07 06:20:48;;;;;;;13.70;5.80;;;;;1.70;97343.40;;;;110800;1250;41164;-63
2022/03/07 06:23:18;;;;;;;14.60;5.20;;;;;1.70;97342.20;;;;110740;1251;41264;-62
2022/03/07 06:25:47;;;;;;;11.10;5.40;;;;;1.70;97341.00;;;;110927;1250;41169;-63
2022/03/07 06:28:17;;;;;;;12.70;6.00;;;;;1.70;97337.80;;;;110928;1250;41470;-63
2022/03/07 06:30:48;;;;;;;12.40;5.40;;;;;1.70;97342.00;;;;110804;1250;41642;-62
2022/03/07 06:33:17;;;;;;;;;;;;;1.70;97335.40;;;;110774;1250;41118;-61
2022/03/07 06:35:46;;;;;;;13.30;5.30;;;;;1.70;97338.40;;;;110728;1252;42535;-62
2022/03/07 06:38:17;;;;;;;10.60;4.90;;;;;1.70;97337.60;;;;110731;1250;41342;-63
2022/03/07 06:40:47;;;;;;;11.00;4.50;;;;;1.70;97338.40;;;;110860;1250;42032;-62
2022/03/07 06:43:16;;;;;;;12.00;4.80;;;;;1.70;97337.00;;;;110805;1250;42183;-63
2022/03/07 06:45:46;;;;;;;11.60;5.00;;;;;1.74;97336.60;;;;110750;1251;41154;-63
2022/03/07 06:48:16;;;;;;;10.30;4.90;;;;;1.80;97337.60;;;;110910;1250;41261;-62
2022/03/07 06:50:45;;;;;;;10.30;4.70;;;;;1.80;97334.20;;;;110912;1250;42243;-63
2022/03/07 06:53:14;;;;;;;13.30;4.80;;;;;1.90;97333.00;;;;110881;1250;41511;-63
2022/03/07 06:55:48;;;;;;;11.00;4.60;;;;;1.90;97331.80;;;;110837;1250;41256;-63
2022/03/07 06:58:18;;;;;;;9.40;4.40;;;;;1.96;97335.40;;;;110771;1250;41146;-63
2022/03/07 07:00:48;;;;;;;9.50;4.50;;;;;2.00;97333.40;;;;110927;1250;41454;-63
2022/03/07 07:03:18;;;;;;;10.60;5.00;;;;;2.00;97331.60;;;;110702;1250;41899;-62
2022/03/07 07:05:48;;;;;;;9.90;4.10;;;;;2.10;97335.20;;;;110754;1251;41482;-62
2022/03/07 07:08:18;;;;;;;9.50;4.30;;;;;2.10;97331.80;;;;110722;1251;41474;-61
2022/03/07 07:10:48;;;;;;;10.50;4.40;;;;;2.10;97330.40;;;;110795;1251;40753;-62
2022/03/07 07:13:17;;;;;;;10.30;4.40;;;;;2.20;97332.20;;;;110951;1250;41146;-62
2022/03/07 07:15:54;;;;;;;11.10;4.70;;;;;2.20;97329.80;;;;110840;1250;41602;-62
2022/03/07 07:18:24;;;;;;;10.30;4.50;;;;;2.20;97330.40;;;;110692;1251;41405;-62
2022/03/07 07:20:55;;;;;;;13.10;5.10;;;;;2.30;97327.40;;;;110920;1249;41261;-62
2022/03/07 07:23:27;;;;;;;12.20;5.00;;;;;2.30;97331.80;;;;110817;1250;41156;-62
2022/03/07 07:25:56;;;;;;;12.40;4.70;;;;;2.40;97332.80;;;;110740;1251;41299;-62
2022/03/07 07:28:26;;;;;;;13.90;5.30;;;;;2.48;97330.40;;;;110671;1250;41612;-62
2022/03/07 07:30:55;;;;;;;11.40;4.90;;;;;2.50;97329.20;;;;110951;1250;41921;-64
2022/03/07 07:33:24;;;;;;;9.90;4.40;;;;;2.60;97322.80;;;;111021;1250;42380;-63
2022/03/07 07:35:54;;;;;;;9.60;4.20;;;;;2.64;97321.80;;;;110910;1249;41366;-63
2022/03/07 07:38:23;;;;;;;10.10;4.40;;;;;2.70;97325.40;;;;110732;1250;42873;-63
2022/03/07 07:40:55;;;;;;;10.40;4.60;;;;;2.72;97320.20;;;;110895;1250;41148;-63
2022/03/07 07:43:24;;;;;;;11.00;4.60;;;;;2.80;97316.40;;;;110732;1251;41309;-64
2022/03/07 07:45:54;;;;;;;9.20;4.40;;;;;2.88;97316.40;;;;110747;1250;41617;-64
2022/03/07 07:48:23;;;;;;;11.10;5.40;;;;;2.90;97312.00;;;;110694;1250;41618;-64
2022/03/07 07:50:52;;;;;;;11.40;5.10;;;;;2.80;97313.40;;;;110830;1250;41811;-64
2022/03/07 07:53:21;;;;;;;12.70;5.30;;;;;2.88;97312.20;;;;110925;1250;41139;-61
2022/03/07 07:55:51;;;;;;;14.40;4.80;;;;;2.90;97308.40;;;;110680;1250;41827;-64
2022/03/07 07:58:21;;;;;;;12.70;5.90;;;;;2.98;97309.80;;;;110843;1250;41138;-64
2022/03/07 08:00:50;;;;;;;13.90;6.10;;;;;3.00;97301.40;;;;110816;1250;42933;-65
2022/03/07 08:03:20;;;;;;;12.40;6.00;;;;;3.10;97300.80;;;;110786;1251;41609;-63
2022/03/07 08:05:49;;;;;;;13.40;6.20;;;;;3.20;97300.20;;;;110783;1251;42285;-64
2022/03/07 08:08:19;;;;;;;12.20;5.90;;;;;3.30;97303.20;;;;110828;1250;41470;-64
2022/03/07 08:10:48;;;;;;;11.90;5.90;;;;;3.40;97305.00;;;;110790;1250;42507;-64
2022/03/07 08:13:17;;;;;;;12.50;5.30;;;;;3.44;97302.60;;;;110746;1251;42316;-63
2022/03/07 08:15:47;;;;;;;14.00;6.00;;;;;3.50;97300.60;;;;110902;1251;41434;-63
2022/03/07 08:18:17;;;;;;;12.90;6.00;;;;;3.60;97299.60;;;;110739;1250;41398;-64
2022/03/07 08:20:51;;;;;;;15.30;7.10;;;;;3.68;97296.60;;;;110862;1250;41526;-63
2022/03/07 08:23:20;;;;;;;13.10;6.30;;;;;3.70;97298.40;;;;110589;1251;41771;-64
2022/03/07 08:25:49;;;;;;;15.10;5.40;;;;;3.70;97295.40;;;;110896;1250;42467;-61
2022/03/07 08:28:18;;;;;;;10.50;5.10;;;;;3.70;97289.80;;;;110885;1249;41441;-62
2022/03/07 08:30:47;;;;;;;12.90;5.10;;;;;3.70;97289.40;;;;110636;1251;41161;-63
2022/03/07 08:33:17;;;;;;;12.20;5.70;;;;;3.70;97289.40;;;;110954;1249;41287;-62
2022/03/07 08:35:46;;;;;;;14.30;6.40;;;;;3.78;97288.40;;;;110703;1251;41343;-63
2022/03/07 08:38:15;;;;;;;18.20;6.00;;;;;3.80;97292.80;;;;110925;1249;41150;-64
2022/03/07 08:40:45;;;;;;;11.80;5.50;;;;;3.70;97290.60;;;;110615;1250;41705;-64
2022/03/07 08:43:15;;;;;;;11.80;5.40;;;;;3.70;97292.20;;;;110632;1250;41258;-63
2022/03/07 08:45:44;;;;;;;10.70;5.30;;;;;3.72;97285.00;;;;110781;1251;41942;-64
2022/03/07 08:48:24;;;;;;;11.20;5.00;;;;;3.68;97287.00;;;;110765;1250;41151;-64
2022/03/07 08:50:54;;;;;;;12.70;5.50;;;;;3.58;97289.80;;;;110712;1250;42994;-64
2022/03/07 08:53:24;;;;;;;10.00;4.90;;;;;3.60;97287.40;;;;110694;1251;41268;-64
2022/03/07 08:55:53;;;;;;;11.90;5.20;;;;;3.70;97290.80;;;;110754;1250;41270;-63
2022/03/07 08:58:42;;;;;;;10.80;5.00;;;;;3.58;97294.00;;;;110647;1251;41284;-64
2022/03/07 09:01:11;;;;;;;12.20;4.70;;;;;3.52;97290.80;;;;110780;1249;42384;-64
2022/03/07 09:03:41;;;;;;;11.90;5.40;;;;;3.66;97293.00;;;;110957;1250;42369;-65
2022/03/07 09:06:10;;;;;;;10.40;4.70;;;;;3.50;97290.40;;;;110794;1251;41399;-64
2022/03/07 09:08:39;;;;;;;10.70;4.90;;;;;3.60;97290.40;;;;110899;1250;41267;-65
2022/03/07 09:11:09;;;;;;;11.60;4.70;;;;;3.58;97285.80;;;;110764;1250;41134;-64
2022/03/07 09:13:38;;;;;;;11.00;5.00;;;;;3.68;97288.60;;;;110653;1250;43012;-63
2022/03/07 09:16:07;;;;;;;11.50;4.40;;;;;3.42;97276.00;;;;110569;1252;41732;-64
2022/03/07 09:18:37;;;;;;;11.00;4.70;;;;;3.48;97280.80;;;;110645;1252;41368;-63
2022/03/07 09:21:07;;;;;;;11.70;5.30;;;;;3.46;97278.80;;;;110721;1251;41327;-64
2022/03/07 09:23:39;;;;;;;9.40;4.00;;;;;3.40;97278.80;;;;110732;1251;41148;-64
2022/03/07 09:26:11;;;;;;;11.50;4.40;;;;;3.56;97276.00;;;;110828;1250;42338;-64
2022/03/07 09:28:41;;;;;;;11.60;5.20;;;;;3.68;97276.20;;;;110757;1250;41149;-65
2022/03/07 09:31:10;;;;;;;14.00;6.00;;;;;3.54;97280.00;;;;110608;1251;41455;-63
2022/03/07 09:33:39;;;;;;;11.50;5.00;;;;;3.32;97279.60;;;;110784;1250;41159;-64
2022/03/07 09:36:09;;;;;;;10.90;4.90;;;;;3.44;97280.40;;;;110632;1251;41156;-65
2022/03/07 09:38:38;;;;;;;12.20;5.70;;;;;3.60;97274.80;;;;110696;1251;41524;-62
2022/03/07 09:41:07;;;;;;;11.30;5.10;;;;;3.66;97282.80;;;;110939;1250;41627;-65
2022/03/07 09:43:37;;;;;;;13.30;5.00;;;;;3.70;97274.00;;;;110771;1251;41204;-63
2022/03/07 09:46:06;;;;;;;12.80;5.40;;;;;3.82;97272.40;;;;110765;1250;41903;-63
2022/03/07 09:48:36;;;;;;;13.40;5.70;;;;;3.90;97274.60;;;;110934;1250;41812;-64
2022/03/07 09:51:05;;;;;;;12.90;6.10;;;;;3.90;97277.40;;;;110953;1250;41150;-64
2022/03/07 09:53:34;;;;;;;14.40;7.10;;;;;3.88;97275.40;;;;110945;1250;41127;-64
2022/03/07 09:56:04;;;;;;;12.80;6.10;;;;;3.50;97274.80;;;;110751;1251;41160;-65
2022/03/07 09:58:33;;;;;;;13.20;6.10;;;;;3.60;97271.20;;;;110902;1249;41503;-64
2022/03/07 10:01:13;;;;;;;17.40;7.80;;;;;3.52;97269.60;;;;110761;1251;41947;-64
2022/03/07 10:03:47;;;;;;;15.70;7.30;;;;;3.30;97272.20;;;;110660;1253;41572;-65
2022/03/07 10:06:18;;;;;;;17.10;7.90;;;;;3.32;97268.60;;;;110652;1252;41169;-63
2022/03/07 10:09:06;;;;;;;15.50;7.20;;;;;3.26;97272.60;;;;110769;1251;42633;-63
2022/03/07 10:11:35;;;;;;;14.70;7.70;;;;;3.30;97272.20;;;;110843;1249;41188;-67
2022/03/07 10:14:05;;;;;;;15.80;7.80;;;;;3.30;97272.00;;;;110683;1251;41156;-63
2022/03/07 10:16:39;;;;;;;14.50;7.00;;;;;3.42;97268.60;;;;110975;1250;41260;-64
2022/03/07 10:19:12;;;;;;;17.40;8.70;;;;;3.70;97264.20;;;;110751;1250;41604;-64
2022/03/07 10:21:47;;;;;;;15.50;7.80;;;;;3.84;97262.00;;;;110864;1250;41148;-64
2022/03/07 10:24:17;;;;;;;18.50;9.20;;;;;4.00;97258.60;;;;110744;1251;41260;-64
2022/03/07 10:26:47;;;;;;;19.00;9.10;;;;;4.20;97262.40;;;;110654;1251;41188;-63
2022/03/07 10:29:16;;;;;;;19.10;9.50;;;;;4.34;97251.40;;;;110644;1250;42526;-65
2022/03/07 10:31:58;;;;;;;17.40;8.30;;;;;4.50;97246.40;;;;110664;1250;41154;-65
2022/03/07 10:34:28;;;;;;;24.70;11.20;;;;;4.60;97250.80;;;;110965;1249;41910;-64
2022/03/07 10:36:57;;;;;;;19.10;9.90;;;;;4.48;97246.80;;;;110936;1250;42759;-63
2022/03/07 10:39:26;;;;;;;21.20;9.20;;;;;4.30;97250.60;;;;110739;1251;41387;-62
2022/03/07 10:41:56;;;;;;;19.00;8.50;;;;;4.18;97251.00;;;;110937;1250;41942;-64
2022/03/07 10:44:28;;;;;;;20.50;10.30;;;;;4.30;97240.60;;;;110930;1250;41144;-66
2022/03/07 10:47:09;;;;;;;19.50;9.60;;;;;3.94;97239.80;;;;110746;1251;41148;-64
2022/03/07 10:49:56;;;;;;;16.50;7.80;;;;;4.10;97239.40;;;;110975;1250;41133;-65
2022/03/07 10:52:33;;;;;;;21.80;10.60;;;;;4.28;97232.00;;;;110758;1250;41260;-64
2022/03/07 10:55:05;;;;;;;19.20;8.70;;;;;4.22;97230.20;;;;110947;1250;41174;-65
2022/03/07 10:57:36;;;;;;;19.10;9.10;;;;;4.50;97221.60;;;;110715;1250;41490;-67
2022/03/07 11:00:09;;;;;;;23.80;11.30;;;;;4.54;97210.80;;;;110826;1250;42211;-66
2022/03/07 11:02:40;;;;;;;18.30;9.20;;;;;4.30;97214.00;;;;110709;1250;42372;-64
2022/03/07 11:05:11;;;;;;;18.20;8.00;;;;;4.80;97199.00;;;;110742;1251;41264;-63
2022/03/07 11:07:45;;;;;;;15.60;7.70;;;;;5.30;97195.60;;;;110713;1251;41456;-64
2022/03/07 11:10:15;;;;;;;16.90;8.00;;;;;5.92;97187.00;;;;110430;1251;41166;-65
2022/03/07 11:12:45;;;;;;;16.30;8.20;;;;;6.40;97178.40;;;;110618;1251;41615;-64
2022/03/07 11:15:18;;;;;;;16.30;8.20;;;;;6.80;97179.00;;;;110681;1251;41281;-65
2022/03/07 11:17:48;;;;;;;18.60;10.00;;;;;6.90;97178.20;;;;110968;1250;41138;-64
2022/03/07 11:20:18;;;;;;;19.90;10.10;;;;;6.54;97180.60;;;;110782;1250;41141;-66
2022/03/07 11:22:47;;;;;;;17.80;9.20;;;;;5.94;97174.00;;;;110739;1251;41968;-64
2022/03/07 11:25:16;;;;;;;16.00;8.30;;;;;5.78;97176.20;;;;110815;1250;41613;-65
2022/03/07 11:27:45;;;;;;;16.80;8.10;;;;;5.90;97168.80;;;;110687;1250;41716;-66
2022/03/07 11:30:21;;;;;;;17.40;8.20;;;;;6.00;97171.00;;;;110668;1250;41620;-65
2022/03/07 11:32:51;;;;;;;15.40;8.00;;;;;6.20;97162.20;;;;110923;1250;41156;-64
2022/03/07 11:35:32;;;;;;;15.40;7.70;;;;;6.46;97157.60;;;;110591;1253;42454;-65
2022/03/07 11:38:21;;;;;;;16.10;7.60;;;;;6.70;97144.40;;;;110790;1250;41132;-64
2022/03/07 11:41:02;;;;;;;15.40;8.00;;;;;7.00;97142.60;;;;110607;1251;40760;-65
2022/03/07 11:43:36;;;;;;;14.90;7.90;;;;;7.20;97138.20;;;;110951;1249;42255;-66
2022/03/07 11:46:05;;;;;;;19.70;8.80;;;;;7.40;97133.60;;;;110617;1251;41153;-65
2022/03/07 11:48:45;;;;;;;14.30;7.30;;;;;7.40;97135.20;;;;110724;1251;42696;-64
2022/03/07 11:51:20;;;;;;;21.40;10.50;;;;;7.50;97135.60;;;;110727;1251;41156;-65
2022/03/07 11:53:50;;;;;;;22.40;13.30;;;;;7.00;97131.40;;;;110615;1250;41368;-64
2022/03/07 11:56:32;;;;;;;21.50;9.90;;;;;5.84;97140.40;;;;110689;1253;41200;-64
2022/03/07 11:59:03;;;;;;;26.80;12.00;;;;;5.66;97140.60;;;;110822;1250;41152;-65
2022/03/07 12:01:33;;;;;;;21.20;10.00;;;;;5.00;97139.00;;;;110684;1251;41212;-66
2022/03/07 12:04:18;;;;;;;17.00;9.90;;;;;4.80;97134.60;;;;110919;1251;41152;-65
2022/03/07 12:06:52;;;;;;;16.90;8.80;;;;;4.90;97135.40;;;;110670;1251;41740;-64
2022/03/07 12:09:32;;;;;;;17.20;8.90;;;;;5.10;97136.00;;;;110754;1251;42133;-65
2022/03/07 12:12:03;;;;;;;16.20;8.60;;;;;5.30;97127.40;;;;110768;1251;41764;-64
2022/03/07 12:14:38;;;;;;;15.20;7.00;;;;;5.62;97118.20;;;;110927;1250;41136;-64
2022/03/07 12:17:19;;;;;;;23.90;6.90;;;;;6.12;97111.60;;;;110690;1251;41174;-64
2022/03/07 12:19:53;;;;;;;;;;;;;6.64;97108.20;;;;110673;1251;41158;-64
2022/03/07 12:22:25;;;;;;;16.40;8.00;;;;;7.02;97102.00;;;;110545;1252;41264;-62
2022/03/07 12:24:57;;;;;;;15.20;7.40;;;;;7.38;97101.60;;;;110882;1250;41144;-64
2022/03/07 12:27:27;;;;;;;18.80;8.80;;;;;7.60;97097.00;;;;110755;1251;41729;-64
2022/03/07 12:29:56;;;;;;;16.30;7.80;;;;;7.70;97095.60;;;;110909;1251;41261;-65
2022/03/07 12:32:26;;;;;;;15.90;7.40;;;;;7.82;97091.20;;;;110700;1251;41863;-64